createdAt,value
2019-04-07T00:00:38.161Z,94937.25
2019-04-07T00:03:04.636Z,94936.94
2019-04-07T00:05:31.542Z,94936.11
2019-04-07T00:07:59.050Z,94930.35
2019-04-07T00:10:25.857Z,94927.89
2019-04-07T00:12:52.208Z,94930.70
2019-04-07T00:15:18.928Z,94929.08
2019-04-07T00:17:45.585Z,94940.14
2019-04-07T00:20:12.481Z,94943.13
2019-04-07T00:22:38.774Z,94945.59
2019-04-07T00:25:05.381Z,94948.41
2019-04-07T00:27:31.919Z,94947.91
2019-04-07T00:29:58.006Z,94952.35
2019-04-07T00:32:24.948Z,94949.92
2019-04-07T00:34:51.808Z,94957.66
2019-04-07T00:37:18.343Z,94955.55
2019-04-07T00:39:44.512Z,94951.32
2019-04-07T00:42:10.775Z,94949.39
2019-04-07T00:44:36.946Z,94949.08
2019-04-07T00:47:03.206Z,94949.11
2019-04-07T00:49:29.713Z,94958.67
2019-04-07T00:51:58.393Z,94956.08
2019-04-07T00:54:25.444Z,94951.81
2019-04-07T00:56:51.780Z,94958.11
2019-04-07T00:59:18.225Z,94953.02
2019-04-07T01:01:44.982Z,94957.02
2019-04-07T01:04:11.242Z,94957.84
2019-04-07T01:06:37.373Z,94955.24
2019-04-07T01:09:07.900Z,94954.58
2019-04-07T01:11:34.299Z,94946.06
2019-04-07T01:14:00.664Z,94946.72
2019-04-07T01:16:27.406Z,94954.13
2019-04-07T01:18:53.725Z,94950.01
2019-04-07T01:21:20.372Z,94959.53
2019-04-07T01:23:46.881Z,94957.55
2019-04-07T01:26:13.085Z,94951.98
2019-04-07T01:28:39.325Z,94954.92
2019-04-07T01:31:05.597Z,94957.55
2019-04-07T01:33:32.328Z,94960.19
2019-04-07T01:35:58.550Z,94958.87
2019-04-07T01:38:24.759Z,94959.70
2019-04-07T01:41:02.065Z,94962.81
2019-04-07T01:43:42.148Z,94962.33
2019-04-07T01:46:27.311Z,94959.87
2019-04-07T01:48:55.950Z,94963.33
2019-04-07T01:51:27.009Z,94961.05
2019-04-07T01:54:04.434Z,94961.90
2019-04-07T01:56:36.256Z,94963.72
2019-04-07T01:59:20.963Z,94960.62
2019-04-07T02:01:58.152Z,94960.64
2019-04-07T02:04:26.146Z,94961.14
2019-04-07T02:06:57.574Z,94959.02
2019-04-07T02:09:31.682Z,94969.68
2019-04-07T02:12:12.012Z,94967.91
2019-04-07T02:14:46.640Z,94967.75
2019-04-07T02:17:27.238Z,94965.77
2019-04-07T02:20:07.899Z,94967.73
2019-04-07T02:22:39.364Z,94971.20
2019-04-07T02:25:14.022Z,94973.66
2019-04-07T02:27:52.123Z,94968.89
2019-04-07T02:30:20.406Z,94963.17
2019-04-07T02:32:51.227Z,94965.62
2019-04-07T02:35:22.922Z,94961.04
2019-04-07T02:38:08.289Z,94966.62
2019-04-07T02:40:36.481Z,94963.65
2019-04-07T02:43:21.351Z,94969.06
2019-04-07T02:45:56.454Z,94970.89
2019-04-07T02:48:42.584Z,94970.55
2019-04-07T02:51:27.647Z,94974.81
2019-04-07T02:54:02.527Z,94969.41
2019-04-07T02:56:42.894Z,94967.77
2019-04-07T02:59:12.048Z,94972.67
2019-04-07T03:01:57.655Z,94974.50
2019-04-07T03:04:44.506Z,94972.84
2019-04-07T03:07:15.294Z,94982.70
2019-04-07T03:09:50.336Z,94985.48
2019-04-07T03:12:34.160Z,94983.19
2019-04-07T03:15:19.364Z,94983.52
2019-04-07T03:18:06.883Z,94991.56
2019-04-07T03:20:43.575Z,94992.22
2019-04-07T03:23:24.630Z,94989.89
2019-04-07T03:25:52.828Z,94984.98
2019-04-07T03:28:39.978Z,94983.33
2019-04-07T03:31:19.292Z,94974.78
2019-04-07T03:34:05.983Z,94979.84
2019-04-07T03:37:15.073Z,94982.98
2019-04-07T03:39:37.239Z,94982.62
2019-04-07T03:42:08.708Z,94983.30
2019-04-07T03:44:46.911Z,94986.25
2019-04-07T03:47:21.264Z,94986.09
2019-04-07T03:50:07.185Z,94983.63
2019-04-07T03:52:38.054Z,94987.21
2019-04-07T03:55:17.165Z,94980.64
2019-04-07T03:57:46.256Z,94976.07
2019-04-07T04:01:05.100Z,94980.81
2019-04-07T04:03:34.274Z,94984.75
2019-04-07T04:06:19.412Z,94981.64
2019-04-07T04:08:47.789Z,94979.69
2019-04-07T04:11:16.189Z,94983.11
2019-04-07T04:13:53.435Z,94982.80
2019-04-07T04:16:20.124Z,94982.31
2019-04-07T04:18:46.448Z,94995.11
2019-04-07T04:21:12.566Z,94988.87
2019-04-07T04:23:41.527Z,94987.56
2019-04-07T04:26:06.901Z,94990.19
2019-04-07T04:28:33.139Z,94992.63
2019-04-07T04:30:59.894Z,94989.20
2019-04-07T04:33:26.217Z,94993.13
2019-04-07T04:35:52.394Z,94992.46
2019-04-07T04:38:18.665Z,94993.13
2019-04-07T04:40:44.867Z,94990.83
2019-04-07T04:43:11.204Z,94990.50
2019-04-07T04:45:38.470Z,94989.03
2019-04-07T04:48:05.012Z,94993.16
2019-04-07T04:50:31.817Z,94997.89
2019-04-07T04:52:58.029Z,94998.73
2019-04-07T04:55:24.347Z,94997.25
2019-04-07T04:57:51.209Z,94998.73
2019-04-07T05:00:18.766Z,94993.95
2019-04-07T05:02:45.714Z,95000.68
2019-04-07T05:05:12.473Z,95002.66
2019-04-07T05:07:50.149Z,94995.27
2019-04-07T05:10:07.853Z,95002.66
2019-04-07T05:12:34.302Z,95002.98
2019-04-07T05:15:00.404Z,95002.18
2019-04-07T05:17:26.630Z,95004.64
2019-04-07T05:19:53.407Z,95006.98
2019-04-07T05:22:21.203Z,95013.22
2019-04-07T05:24:47.658Z,95011.07
2019-04-07T05:27:13.999Z,95012.73
2019-04-07T05:29:40.254Z,95011.41
2019-04-07T05:32:06.887Z,95011.44
2019-04-07T05:34:33.430Z,95011.43
2019-04-07T05:36:59.553Z,95010.94
2019-04-07T05:39:25.834Z,95021.95
2019-04-07T05:41:52.555Z,95022.42
2019-04-07T05:44:18.921Z,95023.77
2019-04-07T05:46:45.295Z,95026.70
2019-04-07T05:49:12.291Z,95024.58
2019-04-07T05:51:40.231Z,95017.36
2019-04-07T05:54:07.155Z,95018.34
2019-04-07T05:56:33.397Z,95021.12
2019-04-07T05:58:59.721Z,95014.06
2019-04-07T06:01:25.994Z,95019.78
2019-04-07T06:03:52.274Z,95027.01
2019-04-07T06:06:20.086Z,95030.29
2019-04-07T06:08:47.819Z,95026.84
2019-04-07T06:11:14.811Z,95025.34
2019-04-07T06:13:43.851Z,95024.37
2019-04-07T06:16:09.549Z,95034.38
2019-04-07T06:18:35.859Z,95032.40
2019-04-07T06:21:02.754Z,95033.05
2019-04-07T06:23:30.182Z,95036.00
2019-04-07T06:25:59.139Z,95038.13
2019-04-07T06:28:25.112Z,95030.53
2019-04-07T06:30:52.044Z,95034.12
2019-04-07T06:33:18.258Z,95034.13
2019-04-07T06:35:47.263Z,95034.77
2019-04-07T06:38:13.303Z,95034.08
2019-04-07T06:40:39.528Z,95030.42
2019-04-07T06:43:06.364Z,95039.78
2019-04-07T06:45:54.918Z,95042.39
2019-04-07T06:48:21.273Z,95038.91
2019-04-07T06:51:01.735Z,95040.67
2019-04-07T06:53:49.072Z,95044.73
2019-04-07T06:56:20.698Z,95042.07
2019-04-07T06:58:58.137Z,95043.62
2019-04-07T07:01:28.364Z,95042.72
2019-04-07T07:04:14.001Z,95045.31
2019-04-07T07:06:47.105Z,95042.47
2019-04-07T07:09:16.305Z,95043.71
2019-04-07T07:11:48.523Z,95043.27
2019-04-07T07:14:42.296Z,95042.03
2019-04-07T07:17:21.455Z,95041.78
2019-04-07T07:19:55.129Z,95044.75
2019-04-07T07:22:35.696Z,95041.45
2019-04-07T07:25:03.191Z,95039.95
2019-04-07T07:27:29.496Z,95041.20
2019-04-07T07:29:56.543Z,95040.96
2019-04-07T07:32:22.998Z,95046.11
2019-04-07T07:34:49.773Z,95044.84
2019-04-07T07:37:16.078Z,95047.95
2019-04-07T07:39:44.896Z,95041.20
2019-04-07T07:42:10.560Z,95043.57
2019-04-07T07:44:38.482Z,95045.94
2019-04-07T07:47:04.908Z,95044.17
2019-04-07T07:49:34.755Z,95040.91
2019-04-07T07:51:59.324Z,95039.42
2019-04-07T07:54:27.985Z,95045.21
2019-04-07T07:56:53.622Z,95040.64
2019-04-07T07:59:20.129Z,95042.11
2019-04-07T08:01:47.559Z,95043.36
2019-04-07T08:04:15.252Z,95040.81
2019-04-07T08:06:41.558Z,95046.17
2019-04-07T08:09:13.727Z,95042.87
2019-04-07T08:11:37.297Z,95047.56
2019-04-07T08:14:04.037Z,95049.25
2019-04-07T08:16:31.462Z,95048.36
2019-04-07T08:19:00.503Z,95055.25
2019-04-07T08:21:27.066Z,95056.05
2019-04-07T08:23:53.530Z,95056.00
2019-04-07T08:26:23.870Z,95062.88
2019-04-07T08:28:48.222Z,95067.09
2019-04-07T08:31:17.757Z,95062.59
2019-04-07T08:33:43.261Z,95065.48
2019-04-07T08:36:11.641Z,95069.21
2019-04-07T08:38:37.689Z,95073.86
2019-04-07T08:41:04.202Z,95064.81
2019-04-07T08:43:30.781Z,95064.45
2019-04-07T08:45:57.851Z,95066.42
2019-04-07T08:48:24.203Z,95060.84
2019-04-07T08:50:50.476Z,95064.33
2019-04-07T08:53:17.007Z,95066.36
2019-04-07T08:55:44.350Z,95061.78
2019-04-07T08:58:22.734Z,95058.31
2019-04-07T09:00:40.854Z,95059.75
2019-04-07T09:03:12.141Z,95060.05
2019-04-07T09:05:36.439Z,95054.55
2019-04-07T09:08:05.525Z,95054.11
2019-04-07T09:10:49.623Z,95056.72
2019-04-07T09:13:16.398Z,95049.92
2019-04-07T09:15:56.765Z,95050.89
2019-04-07T09:18:31.341Z,95048.23
2019-04-07T09:21:20.461Z,95054.69
2019-04-07T09:23:49.028Z,95055.37
2019-04-07T09:26:21.906Z,95056.27
2019-04-07T09:29:08.540Z,95053.27
2019-04-07T09:31:47.647Z,95050.20
2019-04-07T09:34:31.180Z,95048.58
2019-04-07T09:37:02.351Z,95055.11
2019-04-07T09:39:34.525Z,95055.64
2019-04-07T09:42:18.766Z,95053.19
2019-04-07T09:44:52.895Z,95049.28
2019-04-07T09:47:26.994Z,95051.44
2019-04-07T09:50:07.452Z,95052.42
2019-04-07T09:52:45.893Z,95050.84
2019-04-07T09:55:17.858Z,95044.30
2019-04-07T09:57:50.371Z,95050.68
2019-04-07T10:00:21.658Z,95055.95
2019-04-07T10:03:11.458Z,95044.46
2019-04-07T10:05:40.391Z,95045.81
2019-04-07T10:08:13.941Z,95048.82
2019-04-07T10:10:42.240Z,95053.65
2019-04-07T10:13:27.484Z,95051.42
2019-04-07T10:16:12.109Z,95046.05
2019-04-07T10:18:52.264Z,95044.69
2019-04-07T10:21:20.675Z,95041.92
2019-04-07T10:23:50.617Z,95046.53
2019-04-07T10:26:37.920Z,95051.28
2019-04-07T10:29:23.074Z,95049.50
2019-04-07T10:32:03.479Z,95057.81
2019-04-07T10:34:48.544Z,95050.56
2019-04-07T10:37:22.479Z,95052.53
2019-04-07T10:39:52.688Z,95056.95
2019-04-07T10:42:38.819Z,95050.30
2019-04-07T10:45:17.421Z,95052.25
2019-04-07T10:47:46.103Z,95057.84
2019-04-07T10:50:23.016Z,95052.73
2019-04-07T10:53:06.296Z,95053.28
2019-04-07T10:55:35.131Z,95056.60
2019-04-07T10:58:18.561Z,95058.95
2019-04-07T11:00:59.708Z,95046.14
2019-04-07T11:03:44.468Z,95044.66
2019-04-07T11:06:28.409Z,95040.73
2019-04-07T11:09:13.340Z,95042.30
2019-04-07T11:11:58.887Z,95035.65
2019-04-07T11:14:27.147Z,95050.66
2019-04-07T11:17:00.359Z,95048.16
2019-04-07T11:19:28.593Z,95039.59
2019-04-07T11:21:56.803Z,95042.26
2019-04-07T11:24:37.149Z,95054.74
2019-04-07T11:27:11.571Z,95042.13
2019-04-07T11:29:49.724Z,95050.35
2019-04-07T11:32:24.169Z,95044.70
2019-04-07T11:34:55.419Z,95045.41
2019-04-07T11:37:30.882Z,95029.20
2019-04-07T11:39:59.104Z,95034.59
2019-04-07T11:42:27.142Z,95031.05
2019-04-07T11:45:08.222Z,95026.99
2019-04-07T11:47:36.272Z,95036.50
2019-04-07T11:50:15.213Z,95040.13
2019-04-07T11:52:43.321Z,95031.13
2019-04-07T11:55:30.073Z,95029.32
2019-04-07T11:58:09.892Z,95033.36
2019-04-07T12:00:43.347Z,95020.23
2019-04-07T12:03:30.001Z,95016.48
2019-04-07T12:05:58.187Z,95015.27
2019-04-07T12:08:32.345Z,95016.25
2019-04-07T12:11:14.426Z,95023.45
2019-04-07T12:13:44.606Z,95015.70
2019-04-07T12:16:15.672Z,95015.66
2019-04-07T12:18:52.138Z,95012.16
2019-04-07T12:21:24.025Z,95016.71
2019-04-07T12:24:06.093Z,95014.90
2019-04-07T12:26:42.429Z,95007.86
2019-04-07T12:29:12.708Z,95010.10
2019-04-07T12:31:50.023Z,95010.45
2019-04-07T12:34:23.997Z,95006.53
2019-04-07T12:37:09.060Z,95006.97
2019-04-07T12:39:49.538Z,95010.13
2019-04-07T12:42:18.905Z,95007.85
2019-04-07T12:44:58.981Z,95001.60
2019-04-07T12:47:27.628Z,95005.69
2019-04-07T12:49:59.656Z,94994.94
2019-04-07T12:52:45.176Z,94991.85
2019-04-07T12:55:26.402Z,95002.32
2019-04-07T12:57:55.400Z,94995.89
2019-04-07T13:00:39.094Z,95001.33
2019-04-07T13:03:14.715Z,95007.88
2019-04-07T13:05:59.111Z,95003.80
2019-04-07T13:08:30.597Z,95008.27
2019-04-07T13:10:59.103Z,95004.02
2019-04-07T13:13:34.196Z,94997.67
2019-04-07T13:16:09.131Z,94993.02
2019-04-07T13:18:56.580Z,94991.34
2019-04-07T13:21:34.148Z,94993.86
2019-04-07T13:24:10.970Z,94995.52
2019-04-07T13:26:37.885Z,94992.91
2019-04-07T13:29:06.352Z,94993.06
2019-04-07T13:31:40.936Z,94991.81
2019-04-07T13:34:18.235Z,94987.43
2019-04-07T13:36:55.271Z,94984.28
2019-04-07T13:39:26.345Z,94987.72
2019-04-07T13:42:03.436Z,94991.90
2019-04-07T13:44:31.997Z,94979.28
2019-04-07T13:47:11.722Z,94993.16
2019-04-07T13:49:51.968Z,94991.23
2019-04-07T13:52:20.900Z,94994.08
2019-04-07T13:54:51.117Z,94990.86
2019-04-07T13:57:28.400Z,94990.63
2019-04-07T14:00:13.450Z,95001.70
2019-04-07T14:02:57.083Z,94997.44
2019-04-07T14:05:43.023Z,94993.32
2019-04-07T14:08:24.205Z,94997.92
2019-04-07T14:10:53.948Z,94986.73
2019-04-07T14:13:27.881Z,94997.55
2019-04-07T14:16:08.430Z,94997.55
2019-04-07T14:18:36.728Z,95001.45
2019-04-07T14:21:05.011Z,95004.65
2019-04-07T14:23:52.168Z,95008.38
2019-04-07T14:26:25.882Z,95002.20
2019-04-07T14:29:03.141Z,95005.72
2019-04-07T14:31:31.271Z,95004.03
2019-04-07T14:34:01.509Z,95005.74
2019-04-07T14:36:38.312Z,94995.09
2019-04-07T14:39:17.906Z,94988.55
2019-04-07T14:41:47.315Z,95008.92
2019-04-07T14:44:16.605Z,95001.46
2019-04-07T14:47:03.265Z,95009.89
2019-04-07T14:49:34.744Z,95010.88
2019-04-07T14:52:21.451Z,95017.39
2019-04-07T14:55:05.030Z,95020.05
2019-04-07T14:57:39.087Z,95010.52
2019-04-07T15:00:14.174Z,95004.70
2019-04-07T15:02:41.164Z,95007.30
2019-04-07T15:05:21.668Z,95004.49
2019-04-07T15:08:06.552Z,94993.25
2019-04-07T15:10:35.158Z,94995.59
2019-04-07T15:13:06.169Z,94997.19
2019-04-07T15:15:32.527Z,94998.80
2019-04-07T15:17:58.821Z,94995.61
2019-04-07T15:20:25.121Z,94994.70
2019-04-07T15:22:51.753Z,95004.39
2019-04-07T15:25:19.498Z,94994.67
2019-04-07T15:27:45.803Z,95005.83
2019-04-07T15:30:15.561Z,95003.42
2019-04-07T15:32:42.696Z,95006.97
2019-04-07T15:35:11.806Z,95006.67
2019-04-07T15:37:39.486Z,95005.13
2019-04-07T15:40:06.931Z,95005.87
2019-04-07T15:42:40.390Z,95017.52
2019-04-07T15:45:02.431Z,95012.78
2019-04-07T15:47:29.881Z,95013.02
2019-04-07T15:49:57.783Z,95013.16
2019-04-07T15:52:24.250Z,95014.67
2019-04-07T15:54:53.352Z,95023.25
2019-04-07T15:57:21.697Z,95020.32
2019-04-07T15:59:46.520Z,95021.82
2019-04-07T16:02:13.356Z,95022.16
2019-04-07T16:04:40.727Z,95026.09
2019-04-07T16:07:06.989Z,95023.03
2019-04-07T16:09:40.360Z,95028.52
2019-04-07T16:12:01.735Z,95026.86
2019-04-07T16:14:29.809Z,95034.11
2019-04-07T16:16:59.622Z,95035.27
2019-04-07T16:19:36.488Z,95029.59
2019-04-07T16:21:52.761Z,95044.01
2019-04-07T16:24:21.892Z,95046.97
2019-04-07T16:26:47.957Z,95050.92
2019-04-07T16:29:18.064Z,95050.58
2019-04-07T16:31:44.285Z,95058.54
2019-04-07T16:34:10.743Z,95055.08
2019-04-07T16:36:37.686Z,95048.58
2019-04-07T16:39:09.205Z,95059.41
2019-04-07T16:41:35.041Z,95058.33
2019-04-07T16:44:03.543Z,95067.36
2019-04-07T16:46:30.457Z,95064.72
2019-04-07T16:48:57.774Z,95064.22
2019-04-07T16:51:27.912Z,95068.02
2019-04-07T16:53:53.181Z,95062.53
2019-04-07T16:56:21.867Z,95065.36
2019-04-07T16:58:49.006Z,95062.54
2019-04-07T17:01:26.618Z,95059.21
2019-04-07T17:03:53.092Z,95060.20
2019-04-07T17:06:19.967Z,95061.86
2019-04-07T17:08:46.838Z,95058.30
2019-04-07T17:11:14.015Z,95056.30
2019-04-07T17:13:42.670Z,95060.23
2019-04-07T17:16:11.609Z,95064.66
2019-04-07T17:18:39.076Z,95067.69
2019-04-07T17:21:12.807Z,95072.41
2019-04-07T17:23:40.817Z,95073.97
2019-04-07T17:26:08.064Z,95078.62
2019-04-07T17:28:35.756Z,95078.02
2019-04-07T17:31:04.603Z,95077.37
2019-04-07T17:33:35.069Z,95079.78
2019-04-07T17:36:00.860Z,95074.55
2019-04-07T17:38:29.178Z,95081.02
2019-04-07T17:40:55.537Z,95080.80
2019-04-07T17:43:40.555Z,95082.55
2019-04-07T17:46:16.736Z,95082.30
2019-04-07T17:49:01.325Z,95080.14
2019-04-07T17:51:38.263Z,95087.25
2019-04-07T17:54:19.520Z,95084.44
2019-04-07T17:56:47.590Z,95086.52
2019-04-07T17:59:18.502Z,95088.07
2019-04-07T18:01:52.455Z,95095.46
2019-04-07T18:04:37.739Z,95095.17
2019-04-07T18:07:21.314Z,95100.19
2019-04-07T18:09:59.446Z,95104.70
2019-04-07T18:12:30.722Z,95111.31
2019-04-07T18:15:03.582Z,95110.72
2019-04-07T18:17:38.016Z,95113.88
2019-04-07T18:20:17.270Z,95112.95
2019-04-07T18:22:45.419Z,95117.97
2019-04-07T18:25:33.301Z,95115.52
2019-04-07T18:28:21.492Z,95117.75
2019-04-07T18:30:47.237Z,95118.90
2019-04-07T18:33:22.774Z,95126.23
2019-04-07T18:35:56.901Z,95127.14
2019-04-07T18:38:30.912Z,95127.12
2019-04-07T18:41:10.752Z,95133.77
2019-04-07T18:44:02.374Z,95133.85
2019-04-07T18:46:42.212Z,95140.95
2019-04-07T18:49:20.310Z,95140.33
2019-04-07T18:52:01.886Z,95142.16
2019-04-07T18:54:45.089Z,95148.36
2019-04-07T18:57:30.572Z,95146.70
2019-04-07T19:00:10.665Z,95151.59
2019-04-07T19:02:55.804Z,95145.72
2019-04-07T19:05:40.828Z,95153.72
2019-04-07T19:08:11.836Z,95149.95
2019-04-07T19:10:46.582Z,95153.97
2019-04-07T19:13:17.651Z,95152.30
2019-04-07T19:15:47.860Z,95155.42
2019-04-07T19:18:20.433Z,95151.92
2019-04-07T19:20:57.852Z,95158.48
2019-04-07T19:23:28.513Z,95161.71
2019-04-07T19:25:59.720Z,95154.23
2019-04-07T19:28:40.310Z,95156.13
2019-04-07T19:31:17.484Z,95155.13
2019-04-07T19:33:47.487Z,95151.34
2019-04-07T19:36:18.059Z,95158.46
2019-04-07T19:38:49.275Z,95162.51
2019-04-07T19:41:24.878Z,95161.27
2019-04-07T19:43:59.004Z,95156.09
2019-04-07T19:46:46.058Z,95162.33
2019-04-07T19:49:22.541Z,95160.14
2019-04-07T19:51:53.562Z,95155.11
2019-04-07T19:54:41.801Z,95154.54
2019-04-07T19:57:27.874Z,95158.88
2019-04-07T19:59:57.037Z,95163.16
2019-04-07T20:02:43.211Z,95156.35
2019-04-07T20:05:30.307Z,95154.16
2019-04-07T20:08:16.132Z,95160.78
2019-04-07T20:10:49.871Z,95162.09
2019-04-07T20:13:39.503Z,95161.27
2019-04-07T20:16:12.902Z,95161.83
2019-04-07T20:18:58.828Z,95161.08
2019-04-07T20:21:35.843Z,95167.57
2019-04-07T20:24:19.644Z,95166.66
2019-04-07T20:27:04.096Z,95163.44
2019-04-07T20:29:48.345Z,95161.05
2019-04-07T20:32:16.609Z,95166.34
2019-04-07T20:34:54.764Z,95171.20
2019-04-07T20:37:26.216Z,95167.45
2019-04-07T20:39:56.114Z,95162.72
2019-04-07T20:42:26.859Z,95167.02
2019-04-07T20:45:03.805Z,95167.09
2019-04-07T20:47:31.751Z,95159.03
2019-04-07T20:50:02.758Z,95161.71
2019-04-07T20:52:46.089Z,95160.73
2019-04-07T20:55:23.310Z,95157.90
2019-04-07T20:58:14.416Z,95165.95
2019-04-07T21:00:36.864Z,95163.25
2019-04-07T21:03:23.817Z,95159.77
2019-04-07T21:06:02.117Z,95162.05
2019-04-07T21:08:39.963Z,95165.52
2019-04-07T21:11:08.271Z,95163.86
2019-04-07T21:13:36.360Z,95159.52
2019-04-07T21:16:17.755Z,95154.88
2019-04-07T21:21:46.469Z,95155.37
2019-04-07T21:24:19.850Z,95159.86
2019-04-07T21:26:51.121Z,95158.27
2019-04-07T21:29:22.780Z,95158.67
2019-04-07T21:31:54.074Z,95163.73
2019-04-07T21:34:22.847Z,95162.51
2019-04-07T21:37:10.705Z,95161.43
2019-04-07T21:39:39.600Z,95156.05
2019-04-07T21:42:21.995Z,95162.73
2019-04-07T21:45:07.288Z,95156.92
2019-04-07T21:47:41.327Z,95150.91
2019-04-07T21:50:26.490Z,95159.44
2019-04-07T21:53:12.812Z,95165.94
2019-04-07T21:55:44.601Z,95160.54
2019-04-07T21:58:28.175Z,95153.70
2019-04-07T22:01:02.808Z,95163.83
2019-04-07T22:03:29.343Z,95159.45
2019-04-07T22:06:14.555Z,95164.15
2019-04-07T22:08:59.011Z,95161.22
2019-04-07T22:11:28.987Z,95162.59
2019-04-07T22:13:53.923Z,95157.40
2019-04-07T22:16:23.945Z,95155.47
2019-04-07T22:18:49.306Z,95158.81
2019-04-07T22:21:15.412Z,95163.47
2019-04-07T22:23:42.238Z,95165.62
2019-04-07T22:26:13.442Z,95162.86
2019-04-07T22:28:37.298Z,95157.31
2019-04-07T22:31:03.720Z,95159.02
2019-04-07T22:33:32.363Z,95164.28
2019-04-07T22:35:58.266Z,95161.99
2019-04-07T22:38:25.262Z,95168.24
2019-04-07T22:40:52.232Z,95165.61
2019-04-07T22:43:18.882Z,95163.14
2019-04-07T22:45:54.991Z,95166.47
2019-04-07T22:48:14.658Z,95164.98
2019-04-07T22:50:41.322Z,95161.72
2019-04-07T22:53:07.575Z,95171.58
2019-04-07T22:55:35.919Z,95172.27
2019-04-07T22:58:01.926Z,95169.31
2019-04-07T23:00:28.781Z,95170.98
2019-04-07T23:02:55.383Z,95163.56
2019-04-07T23:05:21.959Z,95170.98
2019-04-07T23:07:48.179Z,95181.17
2019-04-07T23:10:16.099Z,95174.92
2019-04-07T23:12:42.509Z,95172.98
2019-04-07T23:15:09.180Z,95174.47
2019-04-07T23:17:36.222Z,95175.95
2019-04-07T23:20:07.386Z,95176.79
2019-04-07T23:22:34.027Z,95174.98
2019-04-07T23:25:01.645Z,95173.03
2019-04-07T23:27:27.791Z,95174.03
2019-04-07T23:29:54.861Z,95175.03
2019-04-07T23:32:21.285Z,95182.28
2019-04-07T23:34:47.793Z,95179.30
2019-04-07T23:37:14.481Z,95188.20
2019-04-07T23:39:40.838Z,95186.23
2019-04-07T23:42:07.047Z,95190.84
2019-04-07T23:44:33.502Z,95190.38
2019-04-07T23:46:59.661Z,95193.50
2019-04-07T23:49:26.134Z,95188.08
2019-04-07T23:51:53.168Z,95188.73
2019-04-07T23:54:19.530Z,95191.22
2019-04-07T23:56:45.799Z,95182.80
2019-04-07T23:59:12.653Z,95179.38
